| time (UTC) | temp F | wind direction | speed knots | gust knots | rain 1hr in | rain 24hr in | rain mn in | humidity % | barometer mb |
| 20260508043019 | 42 | 301 | 3.5 | 12.2 | 0.00 | 0.19 | 0.19 | 49 | 1025.1 |
| 20260508041520 | 42 | 240 | 2.6 | 11.3 | 0.00 | 0.19 | 0.19 | 49 | 1024.8 |
| 20260508040017 | 42 | 315 | 1.7 | 8.7 | 0.00 | 0.19 | 0.19 | 49 | 1025.2 |
| 20260508034517 | 42 | 217 | 0.0 | 1.7 | 0.00 | 0.19 | 0.19 | 50 | 1025.2 |
| 20260508033015 | 43 | 217 | 0.0 | 3.5 | 0.00 | 0.19 | 0.19 | 48 | 1025.0 |
| 20260508031515 | 43 | 219 | 3.5 | 9.6 | 0.00 | 0.19 | 0.19 | 46 | 1025.0 |
| 20260508030015 | 44 | 213 | 0.9 | 6.1 | 0.00 | 0.19 | 0.19 | 46 | 1025.0 |
| 20260508024533 | 44 | 215 | 0.9 | 7.0 | 0.00 | 0.19 | 0.19 | 46 | 1024.9 |
| 20260508023014 | 44 | 206 | 1.7 | 5.2 | 0.00 | 0.19 | 0.19 | 44 | 1025.0 |
| 20260508021514 | 44 | 253 | 2.6 | 8.7 | 0.00 | 0.19 | 0.19 | 43 | 1024.9 |
| 20260508020013 | 44 | 254 | 1.7 | 8.7 | 0.00 | 0.21 | 0.19 | 44 | 1024.9 |
| 20260508014512 | 45 | 244 | 1.7 | 10.4 | 0.00 | 0.21 | 0.19 | 43 | 1024.8 |
| 20260508013014 | 46 | 215 | 1.7 | 4.3 | 0.00 | 0.21 | 0.19 | 41 | 1024.7 |
| 20260508011512 | 46 | 337 | 0.9 | 5.2 | 0.00 | 0.21 | 0.19 | 40 | 1024.6 |
| 20260508010011 | 47 | 211 | 0.0 | 7.0 | 0.00 | 0.25 | 0.19 | 41 | 1024.3 |
| 20260508004522 | 49 | 268 | 0.0 | 7.0 | 0.00 | 0.25 | 0.19 | 40 | 1024.3 |
| 20260508003008 | 49 | 37 | 0.0 | 5.2 | 0.00 | 0.25 | 0.19 | 41 | 1024.5 |
| 20260508001526 | 49 | 32 | 0.0 | 7.0 | 0.00 | 0.25 | 0.19 | 41 | 1024.6 |
| 20260508000007 | 48 | 273 | 3.5 | 10.4 | 0.00 | 0.31 | 0.19 | 36 | 1025.1 |
| 20260507234509 | 49 | 208 | 1.7 | 8.7 | 0.00 | 0.31 | 0.19 | 35 | 1024.6 |
| 20260507233006 | 49 | 284 | 0.0 | 10.4 | 0.00 | 0.31 | 0.19 | 39 | 1024.6 |
| 20260507231502 | 47 | 313 | 3.5 | 8.7 | 0.00 | 0.31 | 0.19 | 45 | 1024.9 |
| 20260507230001 | 47 | 286 | 0.0 | 5.2 | 0.00 | 0.38 | 0.19 | 45 | 1025.1 |
| 20260507224600 | 46 | 259 | 0.0 | 7.8 | 0.00 | 0.38 | 0.19 | 45 | 1025.2 |
| 20260507223058 | 47 | 211 | 3.5 | 9.6 | 0.00 | 0.38 | 0.19 | 41 | 1025.5 |
| 20260507221556 | 47 | 272 | 2.6 | 8.7 | 0.00 | 0.38 | 0.19 | 43 | 1025.5 |
| 20260507220057 | 46 | 209 | 1.7 | 8.7 | 0.00 | 0.38 | 0.19 | 44 | 1025.8 |
| 20260507214552 | 47 | 232 | 4.3 | 13.0 | 0.00 | 0.42 | 0.19 | 43 | 1026.3 |
| 20260507213050 | 48 | 184 | 0.9 | 6.1 | 0.00 | 0.42 | 0.19 | 41 | 1026.5 |
| 20260507211550 | 49 | 269 | 4.3 | 8.7 | 0.00 | 0.42 | 0.19 | 38 | 1026.7 |
| 20260507210101 | 49 | 230 | 4.3 | 14.8 | 0.00 | 0.42 | 0.19 | 38 | 1026.7 |
| 20260507204544 | 51 | 232 | 4.3 | 10.4 | 0.00 | 0.42 | 0.19 | 35 | 1027.1 |
| 20260507203109 | 51 | 212 | 3.5 | 9.6 | 0.00 | 0.42 | 0.19 | 35 | 1027.3 |
| 20260507201541 | 49 | 245 | 3.5 | 10.4 | 0.00 | 0.42 | 0.19 | 35 | 1027.4 |
| 20260507200041 | 50 | 223 | 5.2 | 8.7 | 0.01 | 0.42 | 0.19 | 35 | 1027.7 |
| 20260507194539 | 49 | 268 | 2.6 | 8.7 | 0.01 | 0.42 | 0.19 | 39 | 1027.9 |
| 20260507193040 | 46 | 272 | 5.2 | 10.4 | 0.02 | 0.42 | 0.19 | 40 | 1028.0 |
| 20260507191539 | 47 | 267 | 4.3 | 9.6 | 0.02 | 0.42 | 0.19 | 40 | 1028.2 |
| 20260507190034 | 48 | 204 | 5.2 | 8.7 | 0.02 | 0.42 | 0.18 | 39 | 1028.5 |
| 20260507184534 | 47 | 301 | 4.3 | 12.2 | 0.03 | 0.42 | 0.18 | 40 | 1028.7 |
| 20260507183033 | 45 | 229 | 3.5 | 7.8 | 0.04 | 0.41 | 0.17 | 42 | 1029.0 |
| 20260507181530 | 43 | 267 | 3.5 | 11.3 | 0.06 | 0.41 | 0.17 | 45 | 1029.1 |
| 20260507180029 | 43 | 211 | 1.7 | 7.8 | 0.07 | 0.40 | 0.16 | 47 | 1029.1 |
| 20260507174538 | 46 | 232 | 2.6 | 7.0 | 0.08 | 0.39 | 0.15 | 43 | 1029.2 |
| 20260507173049 | 47 | 213 | 0.0 | 7.8 | 0.08 | 0.37 | 0.13 | 42 | 1029.4 |
| 20260507171527 | 49 | 211 | 0.0 | 12.2 | 0.07 | 0.35 | 0.11 | 41 | 1029.8 |
| 20260507170024 | 50 | 208 | 1.7 | 7.8 | 0.07 | 0.33 | 0.09 | 38 | 1030.4 |
| 20260507164520 | 49 | 331 | 0.0 | 4.3 | 0.06 | 0.31 | 0.07 | 38 | 1030.5 |
| 20260507163015 | 46 | 293 | 0.0 | 2.6 | 0.04 | 0.28 | 0.05 | 43 | 1030.9 |
| 20260507161511 | 43 | 91 | 0.0 | 0.9 | 0.03 | 0.28 | 0.04 | 43 | 1031.4 |
| 20260507160009 | 41 | 92 | 0.0 | 1.7 | 0.02 | 0.26 | 0.02 | 48 | 1031.7 |
| 20260507154503 | 39 | 159 | 0.0 | 0.0 | 0.01 | 0.25 | 0.01 | 52 | 1032.3 |
| 20260507153101 | 34 | 160 | 0.0 | 0.0 | 0.01 | 0.25 | 0.01 | 61 | 1032.7 |
| 20260507151558 | 31 | 160 | 0.0 | 0.0 | 0.01 | 0.25 | 0.01 | 67 | 1033.3 |
| 20260507150055 | 31 | 159 | 0.0 | 0.9 | 0.00 | 0.24 | 0.00 | 65 | 1033.6 |
| 20260507144600 | 29 | 159 | 0.0 | 3.5 | 0.00 | 0.24 | 0.00 | 72 | 1033.6 |
| 20260507143058 | 25 | 299 | 0.0 | 0.0 | 0.00 | 0.24 | 0.00 | 84 | 1033.8 |
| 20260507141553 | 21 | 299 | 0.0 | 0.0 | 0.00 | 0.24 | 0.00 | 86 | 1034.0 |
| 20260507140139 | 18 | 299 | 0.0 | 0.0 | 0.00 | 0.24 | 0.00 | 85 | 1034.1 |
| 20260507134537 | 16 | 299 | 0.0 | 0.0 | 0.00 | 0.24 | 0.00 | 84 | 1033.9 |
| 20260507133105 | 14 | 299 | 0.0 | 0.0 | 0.00 | 0.24 | 0.00 | 83 | 1034.0 |
| 20260507131540 | 13 | 299 | 0.0 | 0.0 | 0.00 | 0.24 | 0.00 | 82 | 1033.9 |
| 20260507130037 | 12 | 299 | 0.0 | 0.0 | 0.00 | 0.24 | 0.00 | 81 | 1033.8 |
| 20260507124531 | 11 | 299 | 0.0 | 0.0 | 0.00 | 0.24 | 0.00 | 80 | 1033.4 |
| 20260507123037 | 11 | 299 | 0.0 | 0.0 | 0.00 | 0.24 | 0.00 | 80 | 1033.4 |
| 20260507121529 | 11 | 299 | 0.0 | 0.0 | 0.00 | 0.24 | 0.00 | 80 | 1033.2 |
| 20260507120032 | 11 | 299 | 0.0 | 0.0 | 0.00 | 0.24 | 0.00 | 80 | 1032.8 |
| 20260507114525 | 11 | 299 | 0.0 | 0.0 | 0.00 | 0.24 | 0.00 | 79 | 1033.1 |
| 20260507113023 | 11 | 299 | 0.0 | 0.0 | 0.00 | 0.24 | 0.00 | 79 | 1032.6 |
| 20260507111522 | 11 | 299 | 0.0 | 0.0 | 0.00 | 0.24 | 0.00 | 79 | 1032.4 |
| 20260507110020 | 11 | 299 | 0.0 | 0.0 | 0.00 | 0.24 | 0.00 | 79 | 1032.3 |
| 20260507104519 | 11 | 299 | 0.0 | 0.0 | 0.00 | 0.24 | 0.00 | 79 | 1032.4 |
| 20260507103019 | 11 | 299 | 0.0 | 0.0 | 0.00 | 0.24 | 0.00 | 79 | 1032.2 |
| 20260507101522 | 11 | 299 | 0.0 | 0.0 | 0.00 | 0.24 | 0.00 | 79 | 1032.2 |
| 20260507100021 | 12 | 299 | 0.0 | 0.0 | 0.00 | 0.24 | 0.00 | 79 | 1032.0 |
| 20260507094513 | 12 | 299 | 0.0 | 0.0 | 0.00 | 0.24 | 0.00 | 79 | 1032.0 |
| 20260507093011 | 12 | 299 | 0.0 | 0.0 | 0.00 | 0.24 | 0.00 | 79 | 1031.9 |
| 20260507091511 | 12 | 299 | 0.0 | 0.0 | 0.00 | 0.24 | 0.00 | 79 | 1031.6 |
| 20260507090011 | 13 | 299 | 0.0 | 0.0 | 0.00 | 0.24 | 0.00 | 79 | 1031.6 |
| 20260507084506 | 13 | 299 | 0.0 | 0.0 | 0.00 | 0.24 | 0.00 | 79 | 1031.6 |
| 20260507083005 | 13 | 299 | 0.0 | 0.0 | 0.00 | 0.24 | 0.00 | 79 | 1031.4 |
| 20260507081503 | 14 | 299 | 0.0 | 0.0 | 0.00 | 0.24 | 0.00 | 79 | 1031.5 |
| 20260507080003 | 14 | 299 | 0.0 | 0.0 | 0.00 | 0.24 | 0.00 | 79 | 1031.5 |
| 20260507074501 | 14 | 299 | 0.0 | 0.0 | 0.00 | 0.24 | 0.00 | 79 | 1031.5 |
| 20260507073108 | 14 | 299 | 0.0 | 0.0 | 0.00 | 0.24 | 0.00 | 78 | 1031.4 |
| 20260507071557 | 15 | 299 | 0.0 | 0.0 | 0.00 | 0.24 | 0.00 | 78 | 1031.2 |
| 20260507070104 | 15 | 299 | 0.0 | 0.0 | 0.00 | 0.24 | 0.00 | 77 | 1031.1 |
| 20260507064557 | 16 | 299 | 0.0 | 0.0 | 0.00 | 0.24 | 0.00 | 77 | 1031.1 |
| 20260507063052 | 16 | 299 | 0.0 | 0.0 | 0.00 | 0.24 | 0.00 | 76 | 1031.2 |
| 20260507061550 | 17 | 299 | 0.0 | 0.0 | 0.00 | 0.24 | 0.00 | 76 | 1031.0 |
| 20260507060054 | 18 | 299 | 0.0 | 0.0 | 0.00 | 0.24 | 0.00 | 75 | 1030.6 |
| 20260507054544 | 19 | 299 | 0.0 | 0.0 | 0.00 | 0.24 | 0.24 | 75 | 1030.6 |
| 20260507053042 | 19 | 299 | 0.0 | 0.0 | 0.00 | 0.24 | 0.24 | 74 | 1030.3 |
| 20260507051540 | 21 | 299 | 0.0 | 0.0 | 0.00 | 0.24 | 0.24 | 73 | 1030.2 |
| 20260507050038 | 21 | 299 | 0.0 | 0.0 | 0.00 | 0.24 | 0.24 | 73 | 1030.1 |
| 20260507044547 | 22 | 299 | 0.0 | 0.0 | 0.00 | 0.24 | 0.24 | 72 | 1030.0 |